sensor_id;sensor_type;location;lat;lon;timestamp;P1;durP1;ratioP1;P2;durP2;ratioP2
73434;SDS011;61648;52.094;5.054;2022-08-21T04:45:07;5.57;;;2.08;;
73434;SDS011;61648;52.094;5.054;2022-08-21T04:47:33;5.82;;;1.88;;
73434;SDS011;61648;52.094;5.054;2022-08-21T04:49:59;3.95;;;1.67;;
73434;SDS011;61648;52.094;5.054;2022-08-21T04:52:25;5.75;;;2.03;;
73434;SDS011;61648;52.094;5.054;2022-08-21T04:54:51;4.93;;;1.90;;
73434;SDS011;61648;52.094;5.054;2022-08-21T04:57:21;5.40;;;1.85;;
73434;SDS011;61648;52.094;5.054;2022-08-21T04:59:48;5.40;;;1.70;;
73434;SDS011;61648;52.094;5.054;2022-08-21T05:02:16;8.10;;;1.95;;
73434;SDS011;61648;52.094;5.054;2022-08-21T05:04:46;6.25;;;1.80;;
73434;SDS011;61648;52.094;5.054;2022-08-21T05:07:17;4.82;;;1.90;;
73434;SDS011;61648;52.094;5.054;2022-08-21T05:09:44;4.90;;;1.70;;
73434;SDS011;61648;52.094;5.054;2022-08-21T05:12:10;4.63;;;1.75;;
73434;SDS011;61648;52.094;5.054;2022-08-21T05:14:37;5.03;;;1.60;;
73434;SDS011;61648;52.094;5.054;2022-08-21T05:17:03;4.68;;;1.65;;
73434;SDS011;61648;52.094;5.054;2022-08-21T05:19:29;5.10;;;1.70;;
73434;SDS011;61648;52.094;5.054;2022-08-21T05:21:55;4.60;;;1.83;;
73434;SDS011;61648;52.094;5.054;2022-08-21T05:24:22;3.95;;;1.65;;
73434;SDS011;61648;52.094;5.054;2022-08-21T05:26:48;5.47;;;1.70;;
73434;SDS011;61648;52.094;5.054;2022-08-21T05:29:15;5.35;;;2.03;;
73434;SDS011;61648;52.094;5.054;2022-08-21T05:31:41;6.65;;;2.15;;
73434;SDS011;61648;52.094;5.054;2022-08-21T05:34:07;3.47;;;1.75;;
73434;SDS011;61648;52.094;5.054;2022-08-21T05:36:33;5.32;;;1.92;;
73434;SDS011;61648;52.094;5.054;2022-08-21T05:38:59;7.65;;;1.80;;
73434;SDS011;61648;52.094;5.054;2022-08-21T05:41:25;4.72;;;1.58;;
73434;SDS011;61648;52.094;5.054;2022-08-21T05:43:51;4.55;;;1.70;;
73434;SDS011;61648;52.094;5.054;2022-08-21T05:46:17;3.63;;;1.90;;
73434;SDS011;61648;52.094;5.054;2022-08-21T05:48:43;5.55;;;2.13;;
73434;SDS011;61648;52.094;5.054;2022-08-21T05:51:10;3.63;;;1.48;;
73434;SDS011;61648;52.094;5.054;2022-08-21T05:53:36;6.82;;;1.90;;
73434;SDS011;61648;52.094;5.054;2022-08-21T05:56:03;5.50;;;1.52;;
73434;SDS011;61648;52.094;5.054;2022-08-21T05:58:29;4.18;;;1.42;;
73434;SDS011;61648;52.094;5.054;2022-08-21T06:00:55;5.35;;;1.73;;
73434;SDS011;61648;52.094;5.054;2022-08-21T06:03:25;6.13;;;1.75;;
73434;SDS011;61648;52.094;5.054;2022-08-21T06:05:52;5.40;;;1.65;;
73434;SDS011;61648;52.094;5.054;2022-08-21T06:08:18;4.60;;;1.52;;
73434;SDS011;61648;52.094;5.054;2022-08-21T06:10:45;6.93;;;1.88;;
73434;SDS011;61648;52.094;5.054;2022-08-21T06:13:11;5.47;;;1.83;;
73434;SDS011;61648;52.094;5.054;2022-08-21T06:15:37;4.13;;;1.52;;
73434;SDS011;61648;52.094;5.054;2022-08-21T06:18:03;4.75;;;1.52;;
73434;SDS011;61648;52.094;5.054;2022-08-21T06:20:29;4.35;;;1.60;;
73434;SDS011;61648;52.094;5.054;2022-08-21T06:22:56;5.22;;;1.80;;
73434;SDS011;61648;52.094;5.054;2022-08-21T06:25:22;5.15;;;1.77;;
73434;SDS011;61648;52.094;5.054;2022-08-21T06:27:49;4.40;;;1.35;;
73434;SDS011;61648;52.094;5.054;2022-08-21T06:30:15;3.75;;;1.65;;
73434;SDS011;61648;52.094;5.054;2022-08-21T06:32:40;5.80;;;1.92;;
73434;SDS011;61648;52.094;5.054;2022-08-21T06:35:06;3.67;;;1.38;;
73434;SDS011;61648;52.094;5.054;2022-08-21T06:37:33;6.50;;;2.28;;
73434;SDS011;61648;52.094;5.054;2022-08-21T06:39:59;4.25;;;1.48;;
73434;SDS011;61648;52.094;5.054;2022-08-21T06:42:25;4.40;;;1.55;;
73434;SDS011;61648;52.094;5.054;2022-08-21T06:44:52;3.42;;;1.60;;
73434;SDS011;61648;52.094;5.054;2022-08-21T06:47:18;6.63;;;1.73;;
73434;SDS011;61648;52.094;5.054;2022-08-21T06:49:44;6.72;;;1.60;;
73434;SDS011;61648;52.094;5.054;2022-08-21T06:52:11;5.35;;;1.50;;
73434;SDS011;61648;52.094;5.054;2022-08-21T06:54:38;7.82;;;1.90;;
73434;SDS011;61648;52.094;5.054;2022-08-21T06:57:05;5.40;;;1.60;;
73434;SDS011;61648;52.094;5.054;2022-08-21T06:59:31;3.92;;;1.38;;
73434;SDS011;61648;52.094;5.054;2022-08-21T07:02:03;6.18;;;1.58;;
73434;SDS011;61648;52.094;5.054;2022-08-21T07:04:34;3.85;;;1.40;;
73434;SDS011;61648;52.094;5.054;2022-08-21T07:07:00;7.18;;;1.60;;
73434;SDS011;61648;52.094;5.054;2022-08-21T07:09:26;5.78;;;1.42;;
73434;SDS011;61648;52.094;5.054;2022-08-21T07:11:53;6.13;;;1.98;;
73434;SDS011;61648;52.094;5.054;2022-08-21T07:14:20;7.32;;;1.60;;
73434;SDS011;61648;52.094;5.054;2022-08-21T07:16:46;4.30;;;1.45;;
73434;SDS011;61648;52.094;5.054;2022-08-21T07:19:12;7.72;;;2.38;;
73434;SDS011;61648;52.094;5.054;2022-08-21T07:21:38;4.82;;;1.50;;
73434;SDS011;61648;52.094;5.054;2022-08-21T07:24:04;4.70;;;1.73;;
73434;SDS011;61648;52.094;5.054;2022-08-21T07:26:30;4.93;;;1.60;;
73434;SDS011;61648;52.094;5.054;2022-08-21T07:28:56;3.95;;;1.70;;
73434;SDS011;61648;52.094;5.054;2022-08-21T07:31:22;6.93;;;1.90;;
73434;SDS011;61648;52.094;5.054;2022-08-21T07:33:48;7.85;;;1.60;;
73434;SDS011;61648;52.094;5.054;2022-08-21T07:36:14;4.63;;;1.63;;
73434;SDS011;61648;52.094;5.054;2022-08-21T07:38:41;6.32;;;1.85;;
73434;SDS011;61648;52.094;5.054;2022-08-21T07:41:10;5.88;;;1.83;;
73434;SDS011;61648;52.094;5.054;2022-08-21T07:43:38;5.43;;;1.60;;
73434;SDS011;61648;52.094;5.054;2022-08-21T07:46:04;4.50;;;1.33;;
73434;SDS011;61648;52.094;5.054;2022-08-21T07:48:30;6.20;;;1.77;;
73434;SDS011;61648;52.094;5.054;2022-08-21T07:50:56;5.13;;;1.45;;
73434;SDS011;61648;52.094;5.054;2022-08-21T07:53:23;7.07;;;1.90;;
73434;SDS011;61648;52.094;5.054;2022-08-21T07:55:49;7.25;;;1.77;;
73434;SDS011;61648;52.094;5.054;2022-08-21T07:58:15;6.38;;;1.65;;
73434;SDS011;61648;52.094;5.054;2022-08-21T08:00:42;9.25;;;2.28;;
73434;SDS011;61648;52.094;5.054;2022-08-21T08:03:07;14.27;;;3.45;;
73434;SDS011;61648;52.094;5.054;2022-08-21T08:05:33;14.25;;;3.47;;
73434;SDS011;61648;52.094;5.054;2022-08-21T08:08:02;10.68;;;3.58;;
73434;SDS011;61648;52.094;5.054;2022-08-21T08:10:28;12.05;;;3.65;;
73434;SDS011;61648;52.094;5.054;2022-08-21T08:12:54;14.63;;;3.50;;
73434;SDS011;61648;52.094;5.054;2022-08-21T08:15:24;12.55;;;3.92;;
73434;SDS011;61648;52.094;5.054;2022-08-21T08:17:50;12.55;;;3.90;;
73434;SDS011;61648;52.094;5.054;2022-08-21T08:20:17;13.02;;;3.97;;
73434;SDS011;61648;52.094;5.054;2022-08-21T08:22:44;15.00;;;3.97;;
73434;SDS011;61648;52.094;5.054;2022-08-21T08:25:11;13.32;;;3.30;;
73434;SDS011;61648;52.094;5.054;2022-08-21T08:27:38;14.82;;;4.63;;
73434;SDS011;61648;52.094;5.054;2022-08-21T08:30:04;15.00;;;4.93;;
73434;SDS011;61648;52.094;5.054;2022-08-21T08:32:31;17.55;;;5.03;;
73434;SDS011;61648;52.094;5.054;2022-08-21T08:34:57;18.00;;;5.72;;
73434;SDS011;61648;52.094;5.054;2022-08-21T08:37:23;16.13;;;4.85;;
73434;SDS011;61648;52.094;5.054;2022-08-21T08:39:49;17.42;;;4.80;;
73434;SDS011;61648;52.094;5.054;2022-08-21T08:42:26;13.05;;;4.32;;
73434;SDS011;61648;52.094;5.054;2022-08-21T08:44:57;20.13;;;4.60;;
73434;SDS011;61648;52.094;5.054;2022-08-21T08:47:24;18.45;;;5.22;;
73434;SDS011;61648;52.094;5.054;2022-08-21T08:52:37;15.55;;;4.53;;
73434;SDS011;61648;52.094;5.054;2022-08-21T08:57:34;14.70;;;3.60;;
73434;SDS011;61648;52.094;5.054;2022-08-21T09:00:04;17.77;;;3.83;;
73434;SDS011;61648;52.094;5.054;2022-08-21T09:02:31;16.20;;;3.85;;
73434;SDS011;61648;52.094;5.054;2022-08-21T09:04:58;18.08;;;4.55;;
73434;SDS011;61648;52.094;5.054;2022-08-21T09:10:05;14.63;;;2.95;;
73434;SDS011;61648;52.094;5.054;2022-08-21T09:18:11;13.65;;;3.60;;
73434;SDS011;61648;52.094;5.054;2022-08-21T09:26:19;11.73;;;3.00;;
73434;SDS011;61648;52.094;5.054;2022-08-21T09:28:55;11.13;;;2.78;;
73434;SDS011;61648;52.094;5.054;2022-08-21T09:31:26;13.00;;;2.45;;
73434;SDS011;61648;52.094;5.054;2022-08-21T09:34:03;11.35;;;2.90;;
73434;SDS011;61648;52.094;5.054;2022-08-21T09:36:40;10.57;;;2.70;;
73434;SDS011;61648;52.094;5.054;2022-08-21T09:39:07;12.55;;;2.53;;
73434;SDS011;61648;52.094;5.054;2022-08-21T09:41:34;11.18;;;2.83;;
73434;SDS011;61648;52.094;5.054;2022-08-21T09:44:01;10.20;;;2.40;;
73434;SDS011;61648;52.094;5.054;2022-08-21T09:46:27;10.65;;;2.50;;
73434;SDS011;61648;52.094;5.054;2022-08-21T09:48:56;11.57;;;2.80;;
73434;SDS011;61648;52.094;5.054;2022-08-21T09:51:24;10.55;;;2.88;;
73434;SDS011;61648;52.094;5.054;2022-08-21T09:53:55;14.82;;;3.95;;
73434;SDS011;61648;52.094;5.054;2022-08-21T09:56:33;13.13;;;2.88;;
73434;SDS011;61648;52.094;5.054;2022-08-21T09:59:30;8.68;;;2.10;;
73434;SDS011;61648;52.094;5.054;2022-08-21T10:01:58;11.55;;;2.55;;
73434;SDS011;61648;52.094;5.054;2022-08-21T10:04:28;12.48;;;2.97;;
73434;SDS011;61648;52.094;5.054;2022-08-21T10:06:54;9.15;;;2.13;;
73434;SDS011;61648;52.094;5.054;2022-08-21T10:09:20;10.23;;;2.15;;
73434;SDS011;61648;52.094;5.054;2022-08-21T10:17:27;9.18;;;2.75;;
73434;SDS011;61648;52.094;5.054;2022-08-21T10:25:10;6.50;;;1.90;;
73434;SDS011;61648;52.094;5.054;2022-08-21T10:27:49;7.70;;;2.08;;
73434;SDS011;61648;52.094;5.054;2022-08-21T10:31:00;10.05;;;2.72;;
73434;SDS011;61648;52.094;5.054;2022-08-21T10:35:37;9.63;;;2.70;;
73434;SDS011;61648;52.094;5.054;2022-08-21T10:53:57;5.90;;;1.90;;
73434;SDS011;61648;52.094;5.054;2022-08-21T10:56:30;8.10;;;2.20;;
73434;SDS011;61648;52.094;5.054;2022-08-21T11:01:27;6.00;;;1.80;;
73434;SDS011;61648;52.094;5.054;2022-08-21T11:06:41;10.63;;;3.17;;
73434;SDS011;61648;52.094;5.054;2022-08-21T11:11:39;9.85;;;2.63;;
73434;SDS011;61648;52.094;5.054;2022-08-21T11:14:13;8.32;;;2.70;;
73434;SDS011;61648;52.094;5.054;2022-08-21T11:16:42;11.00;;;2.83;;
73434;SDS011;61648;52.094;5.054;2022-08-21T11:21:49;8.02;;;2.20;;
73434;SDS011;61648;52.094;5.054;2022-08-21T11:24:29;9.73;;;2.53;;
73434;SDS011;61648;52.094;5.054;2022-08-21T11:27:58;7.82;;;2.20;;
73434;SDS011;61648;52.094;5.054;2022-08-21T11:29:58;7.20;;;2.17;;
73434;SDS011;61648;52.094;5.054;2022-08-21T11:43:09;10.23;;;2.63;;
73434;SDS011;61648;52.094;5.054;2022-08-21T11:50:54;9.50;;;2.67;;
73434;SDS011;61648;52.094;5.054;2022-08-21T11:53:26;9.00;;;2.47;;
73434;SDS011;61648;52.094;5.054;2022-08-21T11:55:56;12.02;;;2.55;;
73434;SDS011;61648;52.094;5.054;2022-08-21T11:58:38;11.85;;;2.40;;
73434;SDS011;61648;52.094;5.054;2022-08-21T12:01:09;12.32;;;2.28;;
73434;SDS011;61648;52.094;5.054;2022-08-21T12:03:38;9.13;;;2.50;;
73434;SDS011;61648;52.094;5.054;2022-08-21T12:06:06;7.88;;;2.28;;
73434;SDS011;61648;52.094;5.054;2022-08-21T12:08:34;10.23;;;2.50;;
73434;SDS011;61648;52.094;5.054;2022-08-21T12:11:03;11.43;;;2.67;;
73434;SDS011;61648;52.094;5.054;2022-08-21T12:13:30;8.18;;;2.13;;
73434;SDS011;61648;52.094;5.054;2022-08-21T12:16:13;11.68;;;3.00;;
73434;SDS011;61648;52.094;5.054;2022-08-21T12:18:40;10.40;;;2.45;;
73434;SDS011;61648;52.094;5.054;2022-08-21T12:21:23;8.85;;;2.53;;
73434;SDS011;61648;52.094;5.054;2022-08-21T12:24:01;7.40;;;2.35;;
73434;SDS011;61648;52.094;5.054;2022-08-21T12:26:28;10.40;;;2.08;;
73434;SDS011;61648;52.094;5.054;2022-08-21T12:29:05;8.65;;;2.30;;
73434;SDS011;61648;52.094;5.054;2022-08-21T12:31:33;10.07;;;2.10;;
73434;SDS011;61648;52.094;5.054;2022-08-21T12:33:59;8.75;;;2.13;;
73434;SDS011;61648;52.094;5.054;2022-08-21T12:36:35;7.88;;;2.30;;
73434;SDS011;61648;52.094;5.054;2022-08-21T12:39:04;8.93;;;1.90;;
73434;SDS011;61648;52.094;5.054;2022-08-21T12:41:45;11.70;;;2.42;;
73434;SDS011;61648;52.094;5.054;2022-08-21T12:44:13;7.82;;;1.60;;
73434;SDS011;61648;52.094;5.054;2022-08-21T12:46:48;7.75;;;1.95;;
73434;SDS011;61648;52.094;5.054;2022-08-21T12:52:29;6.68;;;2.15;;
73434;SDS011;61648;52.094;5.054;2022-08-21T12:54:29;7.35;;;2.17;;
73434;SDS011;61648;52.094;5.054;2022-08-21T12:56:56;10.18;;;2.47;;
73434;SDS011;61648;52.094;5.054;2022-08-21T12:59:23;12.35;;;2.35;;
73434;SDS011;61648;52.094;5.054;2022-08-21T13:01:49;7.20;;;1.95;;
73434;SDS011;61648;52.094;5.054;2022-08-21T13:04:17;10.40;;;2.00;;
73434;SDS011;61648;52.094;5.054;2022-08-21T13:06:46;6.65;;;2.00;;
73434;SDS011;61648;52.094;5.054;2022-08-21T13:09:14;11.33;;;2.50;;
73434;SDS011;61648;52.094;5.054;2022-08-21T13:11:41;9.32;;;2.53;;
73434;SDS011;61648;52.094;5.054;2022-08-21T13:14:50;8.60;;;1.88;;
73434;SDS011;61648;52.094;5.054;2022-08-21T13:16:58;7.57;;;2.55;;
73434;SDS011;61648;52.094;5.054;2022-08-21T13:19:24;8.38;;;2.35;;
73434;SDS011;61648;52.094;5.054;2022-08-21T13:21:51;11.60;;;2.13;;
73434;SDS011;61648;52.094;5.054;2022-08-21T13:24:28;10.30;;;2.10;;
73434;SDS011;61648;52.094;5.054;2022-08-21T13:26:54;5.72;;;1.95;;
73434;SDS011;61648;52.094;5.054;2022-08-21T13:29:21;10.48;;;2.20;;
73434;SDS011;61648;52.094;5.054;2022-08-21T13:34:51;4.32;;;1.77;;
73434;SDS011;61648;52.094;5.054;2022-08-21T13:37:18;9.77;;;2.30;;
73434;SDS011;61648;52.094;5.054;2022-08-21T13:39:48;9.63;;;1.80;;
73434;SDS011;61648;52.094;5.054;2022-08-21T13:42:14;9.18;;;2.00;;
73434;SDS011;61648;52.094;5.054;2022-08-21T13:47:07;8.15;;;2.40;;
73434;SDS011;61648;52.094;5.054;2022-08-21T13:49:38;11.18;;;2.30;;
73434;SDS011;61648;52.094;5.054;2022-08-21T13:52:05;8.32;;;1.98;;
73434;SDS011;61648;52.094;5.054;2022-08-21T13:54:40;10.13;;;2.53;;
73434;SDS011;61648;52.094;5.054;2022-08-21T13:57:19;10.10;;;2.08;;
73434;SDS011;61648;52.094;5.054;2022-08-21T13:59:48;8.32;;;2.10;;
73434;SDS011;61648;52.094;5.054;2022-08-21T14:02:15;11.27;;;2.55;;
73434;SDS011;61648;52.094;5.054;2022-08-21T14:04:55;9.18;;;2.20;;
73434;SDS011;61648;52.094;5.054;2022-08-21T14:07:28;8.77;;;2.00;;
73434;SDS011;61648;52.094;5.054;2022-08-21T14:09:55;6.85;;;1.92;;
73434;SDS011;61648;52.094;5.054;2022-08-21T14:14:50;7.43;;;2.00;;
73434;SDS011;61648;52.094;5.054;2022-08-21T14:17:27;6.68;;;1.75;;
73434;SDS011;61648;52.094;5.054;2022-08-21T14:19:54;7.57;;;1.80;;
73434;SDS011;61648;52.094;5.054;2022-08-21T14:24:49;11.55;;;2.42;;
73434;SDS011;61648;52.094;5.054;2022-08-21T14:27:17;6.78;;;2.13;;
73434;SDS011;61648;52.094;5.054;2022-08-21T14:29:44;5.32;;;1.98;;
73434;SDS011;61648;52.094;5.054;2022-08-21T14:32:13;7.90;;;1.88;;
73434;SDS011;61648;52.094;5.054;2022-08-21T14:34:40;7.05;;;1.92;;
73434;SDS011;61648;52.094;5.054;2022-08-21T14:37:06;7.68;;;2.28;;
73434;SDS011;61648;52.094;5.054;2022-08-21T14:39:32;8.13;;;1.67;;
73434;SDS011;61648;52.094;5.054;2022-08-21T14:41:58;10.75;;;2.20;;
73434;SDS011;61648;52.094;5.054;2022-08-21T14:44:28;6.30;;;2.08;;
73434;SDS011;61648;52.094;5.054;2022-08-21T14:46:54;8.38;;;1.70;;
73434;SDS011;61648;52.094;5.054;2022-08-21T14:49:21;7.10;;;2.10;;
73434;SDS011;61648;52.094;5.054;2022-08-21T14:51:47;10.45;;;2.25;;
73434;SDS011;61648;52.094;5.054;2022-08-21T14:54:18;5.25;;;2.33;;
73434;SDS011;61648;52.094;5.054;2022-08-21T14:56:44;6.82;;;2.00;;
73434;SDS011;61648;52.094;5.054;2022-08-21T14:59:10;12.23;;;3.80;;
73434;SDS011;61648;52.094;5.054;2022-08-21T15:01:36;6.75;;;1.80;;
73434;SDS011;61648;52.094;5.054;2022-08-21T15:04:03;6.63;;;2.10;;
73434;SDS011;61648;52.094;5.054;2022-08-21T15:06:29;8.75;;;2.17;;
73434;SDS011;61648;52.094;5.054;2022-08-21T15:08:56;9.57;;;1.73;;
73434;SDS011;61648;52.094;5.054;2022-08-21T15:11:22;8.90;;;2.28;;
73434;SDS011;61648;52.094;5.054;2022-08-21T15:13:50;11.05;;;2.00;;
73434;SDS011;61648;52.094;5.054;2022-08-21T15:16:17;8.98;;;1.88;;
73434;SDS011;61648;52.094;5.054;2022-08-21T15:18:43;9.68;;;2.25;;
73434;SDS011;61648;52.094;5.054;2022-08-21T15:21:09;5.75;;;1.85;;
73434;SDS011;61648;52.094;5.054;2022-08-21T15:23:35;10.57;;;2.03;;
73434;SDS011;61648;52.094;5.054;2022-08-21T15:26:01;7.57;;;2.28;;
73434;SDS011;61648;52.094;5.054;2022-08-21T15:28:27;9.68;;;2.22;;
73434;SDS011;61648;52.094;5.054;2022-08-21T15:30:53;12.50;;;2.17;;
73434;SDS011;61648;52.094;5.054;2022-08-21T15:33:19;12.63;;;2.40;;
73434;SDS011;61648;52.094;5.054;2022-08-21T15:35:46;15.63;;;2.78;;
73434;SDS011;61648;52.094;5.054;2022-08-21T15:38:12;12.30;;;2.50;;
73434;SDS011;61648;52.094;5.054;2022-08-21T15:40:38;10.20;;;2.10;;
73434;SDS011;61648;52.094;5.054;2022-08-21T15:43:06;11.85;;;2.30;;
73434;SDS011;61648;52.094;5.054;2022-08-21T15:45:32;10.25;;;2.20;;
73434;SDS011;61648;52.094;5.054;2022-08-21T15:47:58;10.68;;;2.30;;
73434;SDS011;61648;52.094;5.054;2022-08-21T15:50:25;8.85;;;2.15;;
73434;SDS011;61648;52.094;5.054;2022-08-21T15:52:52;6.80;;;1.88;;
73434;SDS011;61648;52.094;5.054;2022-08-21T15:55:18;4.63;;;2.13;;
73434;SDS011;61648;52.094;5.054;2022-08-21T15:57:46;6.95;;;1.83;;
73434;SDS011;61648;52.094;5.054;2022-08-21T16:00:14;9.85;;;2.35;;
73434;SDS011;61648;52.094;5.054;2022-08-21T16:02:45;7.15;;;1.95;;
73434;SDS011;61648;52.094;5.054;2022-08-21T16:05:12;7.82;;;2.13;;
73434;SDS011;61648;52.094;5.054;2022-08-21T16:07:41;6.20;;;1.92;;
73434;SDS011;61648;52.094;5.054;2022-08-21T16:10:07;7.53;;;1.80;;
73434;SDS011;61648;52.094;5.054;2022-08-21T16:12:35;9.65;;;1.92;;
73434;SDS011;61648;52.094;5.054;2022-08-21T16:15:03;9.43;;;1.90;;
73434;SDS011;61648;52.094;5.054;2022-08-21T16:17:31;8.23;;;2.20;;
73434;SDS011;61648;52.094;5.054;2022-08-21T16:19:57;10.67;;;2.03;;
73434;SDS011;61648;52.094;5.054;2022-08-21T16:22:25;5.15;;;1.65;;
73434;SDS011;61648;52.094;5.054;2022-08-21T16:24:51;7.22;;;1.98;;
73434;SDS011;61648;52.094;5.054;2022-08-21T16:27:17;10.35;;;2.85;;
73434;SDS011;61648;52.094;5.054;2022-08-21T16:29:43;6.60;;;1.90;;
73434;SDS011;61648;52.094;5.054;2022-08-21T16:32:10;11.38;;;2.33;;
73434;SDS011;61648;52.094;5.054;2022-08-21T16:34:36;6.45;;;2.00;;
73434;SDS011;61648;52.094;5.054;2022-08-21T16:37:03;11.52;;;2.00;;
73434;SDS011;61648;52.094;5.054;2022-08-21T16:39:29;6.05;;;1.73;;
73434;SDS011;61648;52.094;5.054;2022-08-21T16:41:55;10.80;;;1.88;;
73434;SDS011;61648;52.094;5.054;2022-08-21T16:44:21;8.48;;;2.03;;
73434;SDS011;61648;52.094;5.054;2022-08-21T16:46:47;11.18;;;3.03;;
73434;SDS011;61648;52.094;5.054;2022-08-21T16:49:13;8.38;;;1.98;;
73434;SDS011;61648;52.094;5.054;2022-08-21T16:51:39;8.38;;;2.42;;
73434;SDS011;61648;52.094;5.054;2022-08-21T16:54:05;8.95;;;2.15;;
73434;SDS011;61648;52.094;5.054;2022-08-21T16:56:31;13.55;;;2.20;;
73434;SDS011;61648;52.094;5.054;2022-08-21T16:58:58;15.00;;;2.10;;
73434;SDS011;61648;52.094;5.054;2022-08-21T17:01:26;10.13;;;2.35;;
73434;SDS011;61648;52.094;5.054;2022-08-21T17:03:52;16.45;;;2.42;;
73434;SDS011;61648;52.094;5.054;2022-08-21T17:06:19;11.38;;;2.58;;
73434;SDS011;61648;52.094;5.054;2022-08-21T17:08:46;14.30;;;2.42;;
73434;SDS011;61648;52.094;5.054;2022-08-21T17:11:21;15.90;;;3.08;;
73434;SDS011;61648;52.094;5.054;2022-08-21T17:13:47;10.95;;;2.50;;
73434;SDS011;61648;52.094;5.054;2022-08-21T17:16:13;14.50;;;2.83;;
73434;SDS011;61648;52.094;5.054;2022-08-21T17:18:40;15.02;;;2.83;;
73434;SDS011;61648;52.094;5.054;2022-08-21T17:21:06;22.27;;;8.57;;
73434;SDS011;61648;52.094;5.054;2022-08-21T17:23:32;26.23;;;8.80;;
73434;SDS011;61648;52.094;5.054;2022-08-21T17:25:58;198.25;;;84.25;;
73434;SDS011;61648;52.094;5.054;2022-08-21T17:28:25;106.35;;;45.13;;
73434;SDS011;61648;52.094;5.054;2022-08-21T17:30:53;74.05;;;33.35;;
73434;SDS011;61648;52.094;5.054;2022-08-21T17:33:20;52.22;;;23.42;;
73434;SDS011;61648;52.094;5.054;2022-08-21T17:35:46;56.78;;;27.90;;
73434;SDS011;61648;52.094;5.054;2022-08-21T17:38:12;56.63;;;29.98;;
73434;SDS011;61648;52.094;5.054;2022-08-21T17:40:39;61.90;;;26.85;;
73434;SDS011;61648;52.094;5.054;2022-08-21T17:43:08;58.30;;;26.80;;
73434;SDS011;61648;52.094;5.054;2022-08-21T17:45:34;51.53;;;24.70;;
73434;SDS011;61648;52.094;5.054;2022-08-21T17:48:01;55.50;;;26.17;;
73434;SDS011;61648;52.094;5.054;2022-08-21T17:50:27;50.35;;;24.08;;
73434;SDS011;61648;52.094;5.054;2022-08-21T17:52:53;51.72;;;23.95;;
73434;SDS011;61648;52.094;5.054;2022-08-21T17:55:19;44.55;;;19.95;;
73434;SDS011;61648;52.094;5.054;2022-08-21T17:57:46;46.10;;;21.23;;
73434;SDS011;61648;52.094;5.054;2022-08-21T18:00:13;43.70;;;20.85;;
73434;SDS011;61648;52.094;5.054;2022-08-21T18:02:40;45.03;;;20.95;;
73434;SDS011;61648;52.094;5.054;2022-08-21T18:05:07;46.88;;;18.80;;
73434;SDS011;61648;52.094;5.054;2022-08-21T18:07:33;46.72;;;20.48;;
73434;SDS011;61648;52.094;5.054;2022-08-21T18:10:00;47.15;;;19.70;;
73434;SDS011;61648;52.094;5.054;2022-08-21T18:12:26;43.65;;;18.25;;
73434;SDS011;61648;52.094;5.054;2022-08-21T18:14:53;45.13;;;18.00;;
73434;SDS011;61648;52.094;5.054;2022-08-21T18:17:19;39.33;;;18.75;;
73434;SDS011;61648;52.094;5.054;2022-08-21T18:19:46;34.85;;;15.70;;
73434;SDS011;61648;52.094;5.054;2022-08-21T18:22:12;42.83;;;19.25;;
73434;SDS011;61648;52.094;5.054;2022-08-21T18:24:38;40.33;;;17.38;;
73434;SDS011;61648;52.094;5.054;2022-08-21T18:27:04;36.35;;;15.27;;
73434;SDS011;61648;52.094;5.054;2022-08-21T18:29:34;41.22;;;18.35;;
73434;SDS011;61648;52.094;5.054;2022-08-21T18:32:49;38.97;;;15.93;;
73434;SDS011;61648;52.094;5.054;2022-08-21T18:38:27;36.55;;;14.88;;
73434;SDS011;61648;52.094;5.054;2022-08-21T18:40:54;32.05;;;11.43;;
73434;SDS011;61648;52.094;5.054;2022-08-21T18:43:21;28.00;;;10.00;;
73434;SDS011;61648;52.094;5.054;2022-08-21T18:45:47;30.73;;;12.00;;
73434;SDS011;61648;52.094;5.054;2022-08-21T18:48:13;26.13;;;8.75;;
73434;SDS011;61648;52.094;5.054;2022-08-21T18:50:42;20.73;;;7.80;;
73434;SDS011;61648;52.094;5.054;2022-08-21T18:53:09;24.77;;;8.33;;
73434;SDS011;61648;52.094;5.054;2022-08-21T18:55:36;22.13;;;5.65;;
73434;SDS011;61648;52.094;5.054;2022-08-21T18:58:02;18.48;;;4.63;;
73434;SDS011;61648;52.094;5.054;2022-08-21T19:00:29;17.65;;;4.65;;
